Time;durP1;ratioP1;P1;durP2;ratioP2;P2;SDS_P1;SDS_P2;PMS_P1;PMS_P2;Temp;Humidity;BMP_temperature;BMP_pressure;BME280_temperature;BME280_humidity;BME280_pressure;Samples;Min_cycle;Max_cycle;Signal;HPM_P1;HPM_P2
2021/06/20 00:01:57;;;;;;;7.40;2.60;;;;;;;16.34;65.75;100033.91;5000167;28;20457;-65
2021/06/20 00:04:24;;;;;;;3.73;2.00;;;;;;;16.24;66.26;100029.47;5003132;28;20454;-66
2021/06/20 00:06:52;;;;;;;10.00;2.15;;;;;;;16.18;66.64;100036.41;5008429;28;20080;-65
2021/06/20 00:09:20;;;;;;;5.47;2.37;;;;;;;16.13;67.02;100033.75;5008616;28;20128;-59
2021/06/20 00:11:48;;;;;;;6.60;1.90;;;;;;;16.24;66.84;100037.91;5007997;28;20146;-59
2021/06/20 00:14:17;;;;;;;4.97;2.17;;;;;;;16.30;66.31;100025.28;5002802;28;20054;-58
2021/06/20 00:16:45;;;;;;;4.38;1.80;;;;;;;16.23;66.51;100027.78;5009775;28;20052;-59
2021/06/20 00:19:13;;;;;;;3.97;1.93;;;;;;;16.09;66.89;100016.69;5002323;28;20137;-59
2021/06/20 00:21:40;;;;;;;6.43;1.80;;;;;;;15.82;67.81;100008.53;5004462;28;20128;-60
2021/06/20 00:24:07;;;;;;;3.50;1.50;;;;;;;15.73;68.28;100007.72;5004345;28;20042;-59
2021/06/20 00:26:34;;;;;;;2.97;1.43;;;;;;;15.73;67.83;99999.25;4993522;28;20459;-58
2021/06/20 00:29:01;;;;;;;7.17;2.10;;;;;;;15.68;68.17;99986.16;4993724;28;20129;-58
2021/06/20 00:31:28;;;;;;;4.30;1.77;;;;;;;15.50;68.38;99947.88;4998814;28;20136;-61
2021/06/20 00:33:55;;;;;;;5.60;2.80;;;;;;;15.72;68.65;99989.13;4999996;28;20060;-61
2021/06/20 00:36:22;;;;;;;6.07;2.63;;;;;;;15.32;69.71;99966.69;5004497;28;20589;-59
2021/06/20 00:38:49;;;;;;;1.90;1.10;;;;;;;15.20;70.69;99972.94;5013371;28;20137;-60
2021/06/20 00:41:16;;;;;;;2.63;1.60;;;;;;;15.26;70.71;99993.31;4999252;28;20045;-60
2021/06/20 00:43:43;;;;;;;2.73;1.67;;;;;;;15.14;71.33;99985.47;4999951;28;20129;-61
2021/06/20 00:46:10;;;;;;;1.30;1.10;;;;;;;14.99;72.02;99972.69;5021205;28;20115;-63
2021/06/20 00:48:37;;;;;;;2.87;1.30;;;;;;;14.90;72.31;99986.69;5002454;28;20562;-62
2021/06/20 00:51:05;;;;;;;4.53;1.80;;;;;;;14.71;73.22;99955.19;5004015;28;20055;-61
2021/06/20 00:53:32;;;;;;;4.37;1.63;;;;;;;14.55;74.20;99956.75;4998609;28;20696;-63
2021/06/20 00:55:59;;;;;;;2.40;1.93;;;;;;;14.46;74.04;99946.28;4994577;28;20150;-67
2021/06/20 00:58:26;;;;;;;2.73;1.20;;;;;;;14.56;74.23;99964.03;5002192;28;20052;-61
2021/06/20 01:00:54;;;;;;;12.40;2.07;;;;;;;14.31;75.20;99946.66;5004934;28;20080;-62
2021/06/20 01:03:21;;;;;;;4.50;1.53;;;;;;;14.21;76.49;99958.16;4998008;28;20088;-62
2021/06/20 01:05:48;;;;;;;4.63;1.60;;;;;;;14.13;76.40;99922.44;5005973;28;20129;-63
2021/06/20 01:08:15;;;;;;;3.40;2.23;;;;;;;14.18;77.19;99936.31;5008456;28;20462;-61
2021/06/20 01:10:42;;;;;;;2.80;1.70;;;;;;;13.88;77.42;99893.84;5007755;28;20080;-61
2021/06/20 01:13:13;;;;;;;5.27;1.93;;;;;;;13.94;78.37;99912.22;4996175;28;20137;-61
2021/06/20 01:15:43;;;;;;;7.63;1.97;;;;;;;14.09;77.92;99915.81;5008551;28;20046;-63
2021/06/20 01:18:10;;;;;;;3.38;1.55;;;;;;;13.84;78.66;99903.22;4999595;28;20129;-60
2021/06/20 01:20:39;;;;;;;5.53;2.27;;;;;;;13.80;79.48;99905.00;5005095;28;20545;-62
2021/06/20 01:23:06;;;;;;;5.63;2.17;;;;;;;13.75;80.26;99892.75;5005654;28;20132;-63
2021/06/20 01:25:35;;;;;;;4.73;1.43;;;;;;;13.83;79.61;99895.94;5000641;28;20084;-64
2021/06/20 01:28:08;;;;;;;8.10;2.67;;;;;;;13.91;79.17;99900.78;5009441;28;20069;-61
2021/06/20 01:30:39;;;;;;;1.93;0.93;;;;;;;13.88;79.48;99890.19;5002942;28;20125;-63
2021/06/20 01:33:08;;;;;;;6.67;2.03;;;;;;;13.85;79.78;99883.28;5013202;28;20041;-68
2021/06/20 01:35:36;;;;;;;3.03;1.30;;;;;;;13.70;80.65;99889.25;5009251;28;20050;-65
2021/06/20 01:38:05;;;;;;;1.37;1.27;;;;;;;13.77;80.29;99869.16;5008164;28;20524;-67
2021/06/20 01:40:33;;;;;;;8.13;2.90;;;;;;;13.74;80.42;99862.19;5007224;28;20133;-66
2021/06/20 01:43:00;;;;;;;4.00;1.40;;;;;;;13.67;81.39;99859.00;5003847;28;20069;-62
2021/06/20 01:45:28;;;;;;;1.80;1.50;;;;;;;13.70;81.30;99847.97;5005451;28;20482;-65
2021/06/20 01:47:58;;;;;;;1.63;1.30;;;;;;;13.75;80.92;99833.00;5009036;28;20414;-63
2021/06/20 01:50:26;;;;;;;6.10;1.47;;;;;;;13.58;82.18;99821.66;5011529;28;20042;-61
2021/06/20 01:53:08;;;;;;;1.90;1.30;;;;;;;13.31;83.41;99833.81;4996564;28;20129;-63
2021/06/20 01:55:37;;;;;;;3.57;1.80;;;;;;;13.46;82.93;99831.44;4999754;28;20125;-65
2021/06/20 01:58:08;;;;;;;2.23;1.50;;;;;;;13.44;82.70;99824.53;5006409;28;20125;-68
2021/06/20 02:00:37;;;;;;;2.20;1.77;;;;;;;13.57;82.76;99828.41;5010888;28;20046;-65
2021/06/20 02:03:18;;;;;;;2.70;1.60;;;;;;;13.63;82.50;99816.72;4997265;28;20126;-61
2021/06/20 02:05:49;;;;;;;1.70;1.47;;;;;;;13.65;82.72;99827.66;4997289;28;20048;-70
2021/06/20 02:08:18;;;;;;;5.37;2.13;;;;;;;13.78;82.04;99820.28;5004019;28;20526;-68
2021/06/20 02:10:47;;;;;;;4.63;2.03;;;;;;;13.71;82.47;99804.75;4995614;28;20133;-74
2021/06/20 02:13:14;;;;;;;2.17;1.43;;;;;;;13.57;83.08;99814.38;4997184;28;20582;-72
2021/06/20 02:15:41;;;;;;;3.80;2.30;;;;;;;13.59;83.13;99772.81;5004897;28;20547;-65
2021/06/20 02:18:09;;;;;;;2.60;1.40;;;;;;;13.59;83.55;99784.03;5009603;28;20096;-68
2021/06/20 02:20:38;;;;;;;2.60;1.73;;;;;;;13.57;83.79;99778.72;5000034;28;20097;-68
2021/06/20 02:23:06;;;;;;;1.45;0.93;;;;;;;13.33;84.20;99742.59;5000966;28;20129;-73
2021/06/20 02:25:33;;;;;;;3.10;2.07;;;;;;;13.62;84.01;99772.19;5004090;28;20050;-70
2021/06/20 02:28:00;;;;;;;2.00;1.00;;;;;;;13.64;83.98;99761.44;5011089;28;20100;-69
2021/06/20 02:30:27;;;;;;;1.83;1.13;;;;;;;13.68;84.29;99738.06;5003676;28;20608;-71
2021/06/20 02:32:54;;;;;;;1.27;1.00;;;;;;;13.54;85.04;99742.94;5009196;28;20125;-70
2021/06/20 02:35:23;;;;;;;1.50;1.07;;;;;;;13.70;84.36;99746.16;5006905;28;20062;-69
2021/06/20 02:37:51;;;;;;;1.87;1.27;;;;;;;13.79;84.24;99757.44;5007566;28;20056;-71
2021/06/20 02:40:18;;;;;;;3.90;1.83;;;;;;;13.81;84.29;99750.34;5007272;28;20561;-73
2021/06/20 02:42:46;;;;;;;2.40;1.63;;;;;;;13.93;84.09;99727.28;4997201;28;20134;-72
2021/06/20 02:45:16;;;;;;;1.77;1.23;;;;;;;13.84;84.26;99749.69;5006225;28;20085;-70
2021/06/20 02:47:45;;;;;;;1.20;1.10;;;;;;;13.82;84.45;99709.09;5011745;28;20045;-66
2021/06/20 02:50:12;;;;;;;0.87;0.60;;;;;;;13.85;84.38;99708.44;5012368;28;20046;-68
2021/06/20 02:52:39;;;;;;;1.53;1.00;;;;;;;13.85;84.76;99728.91;5001984;28;20100;-68
2021/06/20 02:55:06;;;;;;;1.53;0.93;;;;;;;13.82;84.96;99678.22;5011385;28;20125;-67
2021/06/20 02:57:34;;;;;;;2.03;0.93;;;;;;;13.80;85.05;99706.59;5006155;28;20128;-67
2021/06/20 03:00:02;;;;;;;2.07;1.03;;;;;;;13.88;84.61;99711.44;5013003;28;20137;-69
2021/06/20 03:02:30;;;;;;;1.73;0.83;;;;;;;13.87;84.84;99687.28;5006079;28;20088;-69
2021/06/20 03:04:57;;;;;;;1.70;1.07;;;;;;;13.96;84.75;99692.97;5003454;28;20129;-68
2021/06/20 03:07:25;;;;;;;1.53;1.03;;;;;;;13.85;84.98;99697.22;5007478;28;20138;-68
2021/06/20 03:09:52;;;;;;;0.70;0.70;;;;;;;13.83;85.19;99700.31;5009766;28;20504;-69
2021/06/20 03:12:19;;;;;;;1.50;1.03;;;;;;;13.81;85.18;99680.19;5006527;28;20038;-63
2021/06/20 03:14:47;;;;;;;2.30;1.40;;;;;;;13.98;84.71;99677.47;5000786;28;20053;-62
2021/06/20 03:17:15;;;;;;;1.07;0.70;;;;;;;14.04;84.35;99671.69;4998445;28;20132;-63
2021/06/20 03:19:43;;;;;;;1.47;1.10;;;;;;;13.92;84.42;99663.88;4997762;28;20121;-62
2021/06/20 03:22:11;;;;;;;0.67;0.47;;;;;;;13.96;84.79;99705.00;4995453;28;20553;-62
2021/06/20 03:24:44;;;;;;;1.63;0.97;;;;;;;13.94;85.04;99662.41;5001204;28;20126;-62
2021/06/20 03:27:11;;;;;;;0.93;0.70;;;;;;;13.90;85.33;99677.41;4997281;28;20120;-62
2021/06/20 03:29:38;;;;;;;0.57;0.50;;;;;;;13.93;85.07;99688.81;5006842;28;20045;-62
2021/06/20 03:32:06;;;;;;;0.70;0.57;;;;;;;13.93;85.12;99643.91;5008371;28;20119;-73
2021/06/20 03:34:34;;;;;;;0.83;0.60;;;;;;;13.93;85.14;99663.56;5008012;28;20145;-74
2021/06/20 03:37:01;;;;;;;0.83;0.83;;;;;;;13.91;84.99;99659.41;5007495;28;20140;-71
2021/06/20 03:39:28;;;;;;;1.57;0.83;;;;;;;13.88;85.04;99646.88;5009651;28;20065;-71
2021/06/20 03:41:56;;;;;;;4.47;0.60;;;;;;;13.96;84.96;99671.31;5008189;28;20100;-71
2021/06/20 03:44:23;;;;;;;0.50;0.50;;;;;;;13.91;85.08;99634.16;5008785;28;20430;-71
2021/06/20 03:46:50;;;;;;;0.73;0.60;;;;;;;13.98;85.50;99685.03;5005437;28;20085;-73
2021/06/20 03:49:17;;;;;;;2.03;0.83;;;;;;;13.99;85.30;99664.25;5002828;28;20070;-73
2021/06/20 03:51:44;;;;;;;0.90;0.30;;;;;;;14.04;85.24;99647.25;5006771;28;20136;-73
2021/06/20 03:54:11;;;;;;;1.07;0.63;;;;;;;13.99;85.56;99678.28;5004106;28;20045;-72
2021/06/20 03:56:38;;;;;;;1.20;1.10;;;;;;;13.93;85.72;99657.13;5010859;28;20128;-62
2021/06/20 03:59:08;;;;;;;1.77;1.10;;;;;;;14.06;85.37;99666.59;5007413;28;20073;-67
2021/06/20 04:01:36;;;;;;;5.72;1.08;;;;;;;14.13;85.17;99658.50;5008896;28;20569;-69
2021/06/20 04:04:04;;;;;;;1.30;0.47;;;;;;;14.15;85.08;99673.03;4998188;28;20105;-76
2021/06/20 04:06:31;;;;;;;0.73;0.47;;;;;;;14.08;85.49;99675.50;5006929;28;20073;-75
2021/06/20 04:08:58;;;;;;;1.03;0.67;;;;;;;14.11;85.47;99663.59;4996756;28;20134;-69
2021/06/20 04:11:26;;;;;;;1.63;1.07;;;;;;;14.25;85.02;99672.72;5005283;28;20090;-68
2021/06/20 04:13:53;;;;;;;1.60;0.73;;;;;;;14.31;84.77;99688.28;5002095;28;20108;-70
2021/06/20 04:16:20;;;;;;;1.60;0.63;;;;;;;14.34;84.44;99684.00;4996667;28;20077;-69
2021/06/20 04:18:47;;;;;;;0.60;0.50;;;;;;;14.28;84.76;99686.13;5003479;28;20045;-70
2021/06/20 04:21:14;;;;;;;1.07;0.67;;;;;;;14.39;84.84;99709.97;5019248;28;20050;-71
2021/06/20 04:23:41;;;;;;;0.77;0.40;;;;;;;14.50;84.62;99718.06;5015163;28;20073;-71
2021/06/20 04:26:08;;;;;;;1.37;0.80;;;;;;;14.56;84.58;99722.41;5018021;28;20077;-72
2021/06/20 04:28:34;;;;;;;2.07;0.90;;;;;;;14.50;84.44;99712.47;5013643;28;20130;-72
2021/06/20 04:31:01;;;;;;;0.77;0.63;;;;;;;14.51;85.22;99736.63;4999559;28;20076;-67
2021/06/20 04:33:29;;;;;;;1.20;0.60;;;;;;;14.60;84.89;99751.53;4985878;28;20088;-67
2021/06/20 04:35:57;;;;;;;1.47;0.90;;;;;;;14.59;84.71;99744.22;5007105;28;20086;-69
2021/06/20 04:38:24;;;;;;;1.90;1.00;;;;;;;14.74;84.60;99737.31;5006381;28;20573;-68
2021/06/20 04:40:57;;;;;;;1.87;1.03;;;;;;;14.89;84.48;99748.06;5009275;28;20073;-69
2021/06/20 04:43:39;;;;;;;1.17;0.67;;;;;;;14.82;84.55;99730.88;5023340;28;20450;-67
2021/06/20 04:46:28;;;;;;;0.40;0.40;;;;;;;14.94;84.85;99736.69;5013520;28;20141;-66
2021/06/20 04:49:01;;;;;;;1.98;0.60;;;;;;;15.01;84.50;99736.16;4996368;28;20076;-67
2021/06/20 04:51:30;;;;;;;1.80;1.07;;;;;;;15.15;84.29;99739.66;5001916;28;20050;-62
2021/06/20 04:53:57;;;;;;;3.37;0.80;;;;;;;15.21;84.31;99743.94;5008673;28;20136;-63
2021/06/20 04:56:25;;;;;;;0.90;0.77;;;;;;;15.26;84.09;99745.78;4997394;28;20116;-64
2021/06/20 04:58:52;;;;;;;0.70;0.60;;;;;;;15.31;84.26;99739.97;5009844;28;20501;-62
2021/06/20 05:01:19;;;;;;;2.27;0.77;;;;;;;15.09;83.88;99704.44;5004219;28;20134;-62
2021/06/20 05:03:46;;;;;;;0.70;0.70;;;;;;;15.38;83.92;99731.84;5008993;28;20409;-62
2021/06/20 05:06:12;;;;;;;2.27;0.90;;;;;;;15.49;83.91;99744.44;4999349;28;20498;-62
2021/06/20 05:08:39;;;;;;;1.17;0.77;;;;;;;15.57;83.65;99737.13;4992970;28;20088;-63
2021/06/20 05:11:06;;;;;;;5.13;1.00;;;;;;;15.57;83.75;99725.88;5006473;28;20133;-68
2021/06/20 05:13:33;;;;;;;4.53;0.93;;;;;;;15.56;83.67;99729.88;5009522;28;20133;-76
2021/06/20 05:16:00;;;;;;;3.73;0.57;;;;;;;15.45;83.60;99720.09;5001863;28;20479;-70
2021/06/20 05:18:27;;;;;;;1.67;0.90;;;;;;;15.48;83.69;99731.50;4994056;28;20499;-70
2021/06/20 05:20:54;;;;;;;4.60;1.17;;;;;;;15.41;83.77;99728.38;5003556;28;20065;-67
2021/06/20 05:23:21;;;;;;;10.00;1.37;;;;;;;15.32;83.82;99721.97;5011087;28;20142;-66
2021/06/20 05:25:48;;;;;;;0.77;0.60;;;;;;;15.36;83.89;99737.81;5001736;28;20178;-66
2021/06/20 05:28:16;;;;;;;5.13;1.03;;;;;;;15.36;83.76;99740.63;5008342;28;20128;-66
2021/06/20 05:30:45;;;;;;;0.50;0.50;;;;;;;15.36;83.91;99740.63;5003775;28;20073;-66
2021/06/20 05:33:15;;;;;;;3.83;0.95;;;;;;;15.27;84.17;99730.56;5001952;28;20128;-65
2021/06/20 05:35:42;;;;;;;5.70;1.20;;;;;;;15.45;84.08;99762.31;5004210;28;20128;-67
2021/06/20 05:38:10;;;;;;;1.17;0.77;;;;;;;15.43;83.99;99733.69;4996239;28;22074;-67
2021/06/20 05:40:38;;;;;;;5.67;1.43;;;;;;;15.61;83.78;99757.81;5003310;28;20508;-67
2021/06/20 05:43:05;;;;;;;1.77;0.93;;;;;;;15.46;83.65;99727.41;5008639;28;20125;-75
2021/06/20 05:45:32;;;;;;;7.30;1.13;;;;;;;15.60;83.72;99756.16;5000168;28;20146;-69
2021/06/20 05:48:00;;;;;;;3.20;0.70;;;;;;;15.67;83.83;99769.78;5008662;28;20510;-64
2021/06/20 05:50:27;;;;;;;1.77;0.77;;;;;;;15.70;83.63;99771.91;5001265;28;20124;-78
2021/06/20 05:52:55;;;;;;;1.13;0.80;;;;;;;15.76;83.86;99770.56;5001646;28;20072;-68
2021/06/20 05:55:22;;;;;;;5.13;1.13;;;;;;;15.76;83.59;99757.34;4997217;28;20089;-66
2021/06/20 05:57:49;;;;;;;4.30;0.93;;;;;;;15.78;83.55;99760.63;5012172;28;20137;-65
2021/06/20 06:00:16;;;;;;;3.20;1.10;;;;;;;15.82;83.51;99757.97;5000976;28;20129;-73
2021/06/20 06:02:43;;;;;;;3.47;0.90;;;;;;;15.80;83.41;99757.50;5005664;28;20133;-70
2021/06/20 06:05:10;;;;;;;1.53;1.00;;;;;;;15.79;83.52;99761.44;5005428;28;20129;-70
2021/06/20 06:07:37;;;;;;;2.22;1.02;;;;;;;15.80;83.78;99761.13;5002989;28;20429;-71
2021/06/20 06:10:24;;;;;;;6.13;1.05;;;;;;;15.94;84.02;99774.19;4999604;28;20046;-67
2021/06/20 06:12:51;;;;;;;6.90;1.57;;;;;;;16.04;83.81;99787.91;5010679;28;20042;-67
2021/06/20 06:15:18;;;;;;;4.22;0.90;;;;;;;16.06;83.89;99777.09;5008131;28;20066;-64
2021/06/20 06:17:46;;;;;;;1.73;0.93;;;;;;;16.14;83.90;99781.91;5010612;28;20532;-60
2021/06/20 06:20:14;;;;;;;5.05;1.20;;;;;;;16.24;83.93;99789.13;5005280;28;20482;-63
2021/06/20 06:22:40;;;;;;;7.18;1.85;;;;;;;16.27;83.61;99794.94;5006489;28;20073;-63
2021/06/20 06:25:08;;;;;;;7.80;1.35;;;;;;;16.30;83.67;99784.97;5003926;28;20121;-62
2021/06/20 06:27:35;;;;;;;3.33;1.25;;;;;;;16.18;83.99;99765.97;5004796;28;20144;-72
2021/06/20 06:30:02;;;;;;;4.25;1.52;;;;;;;16.41;83.84;99785.41;5012121;28;20143;-63
2021/06/20 06:32:29;;;;;;;4.38;1.48;;;;;;;16.47;83.83;99800.97;4998483;28;20050;-61
2021/06/20 06:34:56;;;;;;;6.72;1.15;;;;;;;16.49;83.78;99795.84;5003496;28;20050;-66
2021/06/20 06:37:23;;;;;;;8.80;1.73;;;;;;;16.52;83.76;99798.00;5004981;28;20141;-65
2021/06/20 06:39:50;;;;;;;3.15;1.10;;;;;;;16.54;83.62;99801.28;5011742;28;20137;-69
2021/06/20 06:42:17;;;;;;;6.25;0.85;;;;;;;16.44;83.54;99785.56;5004327;28;20205;-64
2021/06/20 06:44:44;;;;;;;4.07;1.15;;;;;;;16.62;83.87;99791.97;5025259;28;20129;-66
2021/06/20 06:47:10;;;;;;;4.68;1.50;;;;;;;16.78;83.69;99795.88;5012852;28;20133;-66
2021/06/20 06:49:37;;;;;;;3.05;0.95;;;;;;;16.87;83.97;99786.53;5007473;28;20046;-68
2021/06/20 06:52:04;;;;;;;7.03;1.02;;;;;;;16.94;83.74;99782.00;5006319;28;20125;-63
2021/06/20 06:54:31;;;;;;;4.93;1.00;;;;;;;17.05;83.67;99805.81;5007658;28;20054;-63
2021/06/20 06:56:58;;;;;;;4.20;1.00;;;;;;;16.99;83.36;99800.72;5001889;28;20253;-64
2021/06/20 06:59:25;;;;;;;2.70;1.30;;;;;;;16.95;83.11;99802.56;5008268;28;20141;-62
2021/06/20 07:01:52;;;;;;;3.45;1.13;;;;;;;16.89;83.18;99793.50;5009680;28;20041;-65
2021/06/20 07:04:19;;;;;;;19.98;2.00;;;;;;;16.94;83.48;99800.94;5009172;28;20054;-61
2021/06/20 07:06:46;;;;;;;8.18;1.88;;;;;;;17.06;83.66;99806.66;5003716;28;20927;-67
2021/06/20 07:09:13;;;;;;;5.80;1.60;;;;;;;17.34;83.49;99806.13;5001530;28;20132;-67
2021/06/20 07:11:40;;;;;;;7.68;1.92;;;;;;;17.61;83.18;99813.22;4994740;28;20129;-67
2021/06/20 07:14:07;;;;;;;7.70;1.85;;;;;;;17.85;83.05;99798.41;5002615;28;20593;-62
2021/06/20 07:16:34;;;;;;;12.15;2.33;;;;;;;18.16;83.09;99823.31;5006600;28;20050;-62
2021/06/20 07:19:01;;;;;;;8.85;1.85;;;;;;;18.23;82.81;99807.44;5005382;28;20093;-63
2021/06/20 07:21:28;;;;;;;6.53;2.35;;;;;;;18.32;82.42;99812.97;5004060;28;20077;-63
2021/06/20 07:23:54;;;;;;;15.27;2.88;;;;;;;18.43;82.54;99813.38;5009810;28;20176;-60
2021/06/20 07:26:21;;;;;;;10.80;2.10;;;;;;;18.49;82.24;99826.06;5008039;28;20487;-61
2021/06/20 07:28:48;;;;;;;5.85;1.55;;;;;;;18.34;81.97;99832.44;5001301;28;20137;-61
2021/06/20 07:31:15;;;;;;;7.45;2.00;;;;;;;18.20;81.80;99830.75;5020135;28;20236;-61
2021/06/20 07:33:42;;;;;;;16.83;2.33;;;;;;;17.99;82.05;99816.69;4999446;28;20046;-61
2021/06/20 07:36:10;;;;;;;4.32;1.48;;;;;;;17.92;81.85;99818.44;4997243;28;20487;-61
2021/06/20 07:38:37;;;;;;;7.63;1.80;;;;;;;17.92;81.72;99826.91;4993934;28;20475;-61
2021/06/20 07:41:05;;;;;;;16.35;3.83;;;;;;;17.87;82.06;99832.75;4996155;28;20056;-61
2021/06/20 07:43:31;;;;;;;11.15;1.90;;;;;;;17.77;81.56;99815.06;4999285;28;20573;-60
2021/06/20 07:45:58;;;;;;;4.97;2.25;;;;;;;17.82;82.04;99821.69;5002043;28;20666;-60
2021/06/20 07:48:25;;;;;;;4.78;1.40;;;;;;;17.89;82.22;99830.41;4998302;28;20500;-61
2021/06/20 07:50:53;;;;;;;11.05;2.85;;;;;;;18.02;81.72;99829.28;5003105;28;20077;-60
2021/06/20 07:53:21;;;;;;;6.50;1.52;;;;;;;18.05;81.70;99836.22;5022101;28;20125;-60
2021/06/20 07:55:48;;;;;;;8.63;1.38;;;;;;;18.01;82.09;99836.09;5000631;28;20480;-60
2021/06/20 07:58:16;;;;;;;9.23;2.20;;;;;;;17.92;81.77;99841.84;5008165;28;20049;-60
2021/06/20 08:00:42;;;;;;;7.00;1.77;;;;;;;17.95;81.94;99837.50;5004934;28;20128;-60
2021/06/20 08:03:10;;;;;;;20.15;2.20;;;;;;;17.96;81.27;99851.28;5002276;28;20104;-61
2021/06/20 08:05:37;;;;;;;5.45;2.47;;;;;;;17.93;81.57;99842.66;5006975;28;20128;-59
2021/06/20 08:08:04;;;;;;;7.18;2.03;;;;;;;17.93;82.21;99854.78;5001439;28;20053;-63
2021/06/20 08:10:31;;;;;;;8.80;1.52;;;;;;;18.09;81.82;99849.31;5003817;28;20046;-63
2021/06/20 08:12:58;;;;;;;11.85;1.73;;;;;;;18.42;81.91;99863.41;5004920;28;20038;-63
2021/06/20 08:15:26;;;;;;;17.33;2.60;;;;;;;18.79;81.20;99838.03;5004300;28;20058;-63
2021/06/20 08:17:53;;;;;;;6.60;2.13;;;;;;;19.05;81.40;99857.50;5007373;28;20489;-67
2021/06/20 08:20:20;;;;;;;7.13;1.73;;;;;;;19.01;81.09;99850.03;5008470;28;20046;-68
2021/06/20 08:22:46;;;;;;;12.90;1.98;;;;;;;18.87;81.28;99853.22;5007152;28;20049;-64
2021/06/20 08:25:14;;;;;;;7.32;1.67;;;;;;;18.72;81.21;99851.94;5001250;28;20081;-66
2021/06/20 08:27:42;;;;;;;13.15;2.30;;;;;;;18.55;80.87;99832.34;5002291;28;20057;-66
2021/06/20 08:30:10;;;;;;;3.80;1.17;;;;;;;18.52;80.49;99845.16;5005609;28;20078;-65
2021/06/20 08:32:38;;;;;;;17.25;2.75;;;;;;;18.46;80.58;99852.22;5001261;28;20129;-65
2021/06/20 08:35:05;;;;;;;16.00;2.13;;;;;;;18.36;80.13;99841.38;5001303;28;20056;-65
2021/06/20 08:37:32;;;;;;;6.25;1.40;;;;;;;18.35;80.11;99859.50;5001837;28;20073;-62
2021/06/20 08:39:59;;;;;;;3.22;1.38;;;;;;;18.14;79.77;99848.28;4993638;28;20085;-62
2021/06/20 08:42:26;;;;;;;5.28;1.52;;;;;;;18.17;79.47;99873.81;4999704;28;20052;-58
2021/06/20 08:44:53;;;;;;;10.07;1.83;;;;;;;18.13;79.15;99872.88;5012918;28;20566;-59
2021/06/20 08:47:20;;;;;;;6.95;2.17;;;;;;;18.04;79.42;99891.91;5006637;28;20076;-60
2021/06/20 08:49:47;;;;;;;8.23;1.35;;;;;;;18.06;79.04;99894.41;5001199;28;20153;-67
2021/06/20 08:52:14;;;;;;;8.35;1.63;;;;;;;18.01;79.32;99884.13;4999572;28;20346;-66
2021/06/20 08:57:33;;;;;;;2.72;1.63;;;;;;;17.92;79.89;99880.56;5004700;28;20054;-66
2021/06/20 09:00:01;;;;;;;5.93;1.77;;;;;;;18.02;80.21;99877.31;5010027;28;20065;-66
2021/06/20 09:02:29;;;;;;;4.15;1.52;;;;;;;18.12;80.26;99876.88;5006722;28;20077;-66
2021/06/20 09:05:02;;;;;;;3.72;1.75;;;;;;;18.02;80.29;99851.03;5003555;28;20165;-68
2021/06/20 09:07:35;;;;;;;9.65;1.80;;;;;;;18.13;79.98;99863.56;5004849;28;20068;-67
2021/06/20 09:10:15;;;;;;;5.88;2.30;;;;;;;18.16;79.77;99860.06;5001036;28;20700;-69
2021/06/20 09:12:47;;;;;;;6.53;1.30;;;;;;;18.12;79.31;99847.78;5009683;28;20141;-71
2021/06/20 09:15:17;;;;;;;3.13;1.63;;;;;;;18.26;78.77;99853.97;5005585;28;20573;-69
2021/06/20 09:17:58;;;;;;;6.00;1.80;;;;;;;18.42;79.00;99863.41;5004559;28;20101;-69
2021/06/20 09:20:45;;;;;;;11.23;2.40;;;;;;;18.55;79.18;99860.59;5002605;28;20077;-66
2021/06/20 09:23:17;;;;;;;3.40;1.20;;;;;;;18.44;77.80;99843.28;4999020;28;20121;-67
2021/06/20 09:25:52;;;;;;;7.78;1.65;;;;;;;18.59;77.29;99856.72;5009591;28;20085;-65
2021/06/20 09:28:19;;;;;;;8.27;1.77;;;;;;;18.63;77.73;99854.00;5005818;28;20125;-66
2021/06/20 09:30:49;;;;;;;5.93;1.45;;;;;;;18.64;77.24;99853.69;4993241;28;20536;-65
2021/06/20 09:33:16;;;;;;;9.73;2.55;;;;;;;18.66;77.00;99851.31;5001756;28;20529;-65
2021/06/20 09:35:58;;;;;;;2.85;1.20;;;;;;;18.64;77.08;99858.50;4996255;28;20054;-66
2021/06/20 09:38:38;;;;;;;6.30;1.50;;;;;;;18.58;76.82;99855.06;4999247;28;20112;-67
2021/06/20 09:41:11;;;;;;;4.93;1.55;;;;;;;18.50;76.59;99850.38;4999110;28;20123;-67
2021/06/20 09:43:54;;;;;;;3.47;1.50;;;;;;;18.50;77.49;99856.03;5010756;28;20046;-67
2021/06/20 09:46:22;;;;;;;4.20;1.13;;;;;;;18.52;76.88;99845.16;5004511;28;20498;-67
2021/06/20 09:48:49;;;;;;;10.70;1.52;;;;;;;18.55;76.73;99841.63;4999544;28;20564;-69
2021/06/20 09:51:29;;;;;;;4.43;1.60;;;;;;;18.72;77.06;99848.28;5010547;28;20387;-67
2021/06/20 09:53:56;;;;;;;2.28;1.25;;;;;;;18.80;76.75;99844.50;5011805;28;20125;-67
2021/06/20 09:56:29;;;;;;;12.90;1.33;;;;;;;18.84;76.79;99845.47;5012142;28;20053;-68
2021/06/20 09:59:02;;;;;;;3.45;1.20;;;;;;;18.75;76.88;99841.94;5006839;28;20129;-68
2021/06/20 10:01:30;;;;;;;5.25;1.73;;;;;;;18.81;77.21;99846.19;5003840;28;20080;-69
2021/06/20 10:03:58;;;;;;;7.63;1.53;;;;;;;18.85;77.14;99847.13;5004704;28;20074;-67
2021/06/20 10:06:25;;;;;;;4.80;2.35;;;;;;;18.83;77.02;99847.47;5006263;28;20142;-67
2021/06/20 10:08:52;;;;;;;9.70;2.03;;;;;;;18.96;77.04;99839.81;5007524;28;20050;-68
2021/06/20 10:11:21;;;;;;;13.57;2.00;;;;;;;18.95;76.88;99838.16;5010315;28;20069;-67
2021/06/20 10:13:48;;;;;;;8.90;1.60;;;;;;;18.92;76.91;99848.16;5012004;28;20133;-67
2021/06/20 10:16:29;;;;;;;8.90;2.00;;;;;;;18.85;77.69;99842.28;4999848;28;20050;-68
2021/06/20 10:19:12;;;;;;;5.38;1.95;;;;;;;18.80;77.17;99855.81;5000063;28;20101;-70
2021/06/20 10:21:43;;;;;;;8.02;2.10;;;;;;;18.87;77.55;99853.22;5010809;28;20132;-68
2021/06/20 10:24:19;;;;;;;7.50;1.70;;;;;;;18.91;77.28;99851.38;5013055;28;20141;-63
2021/06/20 10:26:51;;;;;;;10.20;2.30;;;;;;;19.12;77.38;99854.88;5010002;28;20092;-63
2021/06/20 10:29:26;;;;;;;10.48;2.13;;;;;;;19.47;77.01;99854.34;5011388;28;20136;-67
2021/06/20 10:31:54;;;;;;;10.93;1.65;;;;;;;19.95;76.28;99861.06;5010236;28;20129;-72
2021/06/20 10:34:23;;;;;;;3.75;1.42;;;;;;;20.49;75.52;99863.41;5012888;28;20439;-62
2021/06/20 10:36:54;;;;;;;13.23;2.10;;;;;;;20.93;74.80;99854.00;5006240;28;20158;-74
2021/06/20 10:39:22;;;;;;;5.78;1.95;;;;;;;21.49;72.56;99857.41;5006836;28;20139;-61
2021/06/20 10:42:01;;;;;;;6.40;1.60;;;;;;;21.73;72.54;99864.00;5003067;28;20082;-64
2021/06/20 10:44:38;;;;;;;3.08;1.27;;;;;;;22.15;72.58;99869.81;5002783;28;20137;-66
2021/06/20 10:47:05;;;;;;;12.35;1.73;;;;;;;22.33;70.89;99870.16;5008298;28;20073;-66
2021/06/20 10:49:32;;;;;;;8.40;1.95;;;;;;;22.50;70.14;99859.50;5005274;28;20064;-68
2021/06/20 10:51:59;;;;;;;7.60;1.80;;;;;;;22.86;68.49;99875.19;5004985;28;20129;-68
2021/06/20 10:54:28;;;;;;;10.32;1.83;;;;;;;23.03;69.07;99859.63;5004109;28;20137;-68
2021/06/20 10:57:04;;;;;;;7.40;1.70;;;;;;;23.37;68.02;99871.97;5006069;28;20132;-68
2021/06/20 10:59:31;;;;;;;4.95;1.65;;;;;;;23.73;66.06;99873.34;5025548;28;20052;-67
2021/06/20 11:01:58;;;;;;;5.32;1.40;;;;;;;24.15;65.61;99897.09;5010984;28;20129;-68
2021/06/20 11:04:25;;;;;;;4.13;1.35;;;;;;;24.25;66.39;99885.81;5009354;28;20105;-69
2021/06/20 11:06:56;;;;;;;7.32;1.40;;;;;;;24.16;66.93;99879.59;5008551;28;20081;-68
2021/06/20 11:09:34;;;;;;;5.43;1.42;;;;;;;24.07;66.18;99881.94;5009827;28;20125;-69
2021/06/20 11:12:12;;;;;;;5.55;1.92;;;;;;;24.07;66.52;99893.34;5011010;28;20409;-70
2021/06/20 11:14:44;;;;;;;5.43;2.17;;;;;;;23.72;65.54;99860.28;5011274;28;20046;-68
2021/06/20 11:17:11;;;;;;;6.45;1.67;;;;;;;23.59;65.17;99879.63;5010863;28;20125;-70
2021/06/20 11:19:38;;;;;;;7.55;2.40;;;;;;;23.23;65.09;99868.91;5002512;28;20065;-68
2021/06/20 11:22:07;;;;;;;6.25;2.42;;;;;;;23.02;66.18;99872.22;5003863;28;20085;-69
2021/06/20 11:24:39;;;;;;;;;;;;;;;22.93;68.99;99876.16;5008419;28;20141;-69
2021/06/20 11:27:15;;;;;;;12.38;1.65;;;;;;;23.09;67.16;99872.34;5007309;28;20019;-68
2021/06/20 11:29:57;;;;;;;10.00;1.75;;;;;;;23.31;66.51;99873.50;5000903;28;20066;-68
2021/06/20 11:32:28;;;;;;;6.72;1.60;;;;;;;23.63;66.69;99891.09;5007329;28;20081;-68
2021/06/20 11:35:04;;;;;;;6.38;1.98;;;;;;;23.83;66.66;99884.06;5005030;28;20073;-68
2021/06/20 11:37:35;;;;;;;7.20;2.15;;;;;;;24.19;65.90;99884.50;4999903;28;20105;-68
2021/06/20 11:40:09;;;;;;;4.57;1.38;;;;;;;24.46;66.91;99873.03;5006663;28;20145;-67
2021/06/20 11:42:42;;;;;;;8.95;2.05;;;;;;;24.73;66.87;99874.53;5001252;28;20136;-68